Time;durP1;ratioP1;P1;durP2;ratioP2;P2;SDS_P1;SDS_P2;PMS_P1;PMS_P2;Temp;Humidity;BMP_temperature;BMP_pressure;BME280_temperature;BME280_humidity;BME280_pressure;Samples;Min_cycle;Max_cycle;Signal;HPM_P1;HPM_P2
2023/05/14 00:01:35;;;;;;;5.20;3.88;;;14.30;72.30;;;;;;5037234;28;20030;-62
2023/05/14 00:04:02;;;;;;;4.57;3.88;;;14.30;72.30;;;;;;5037666;28;20057;-62
2023/05/14 00:06:27;;;;;;;3.70;3.35;;;14.30;72.30;;;;;;5039460;28;20045;-62
2023/05/14 00:08:53;;;;;;;4.75;4.05;;;14.30;72.30;;;;;;5036728;28;20041;-63
2023/05/14 00:11:19;;;;;;;8.52;4.00;;;14.40;72.20;;;;;;5030507;28;20037;-63
2023/05/14 00:13:45;;;;;;;4.72;3.88;;;14.40;72.20;;;;;;5017126;28;20520;-64
2023/05/14 00:16:11;;;;;;;4.40;4.00;;;14.40;72.10;;;;;;5020843;28;20037;-63
2023/05/14 00:18:37;;;;;;;4.95;3.60;;;14.40;72.00;;;;;;5037236;28;20396;-63
2023/05/14 00:21:02;;;;;;;5.03;4.18;;;14.40;72.00;;;;;;5042516;28;20022;-63
2023/05/14 00:23:28;;;;;;;4.50;3.88;;;14.40;72.00;;;;;;5041388;28;20028;-63
2023/05/14 00:25:54;;;;;;;4.80;4.10;;;14.40;72.10;;;;;;5042101;28;20018;-63
2023/05/14 00:28:20;;;;;;;5.30;3.85;;;14.40;72.20;;;;;;5042503;28;20029;-63
2023/05/14 00:30:45;;;;;;;3.72;3.30;;;14.40;72.10;;;;;;5041372;28;20431;-64
2023/05/14 00:33:11;;;;;;;4.50;3.72;;;14.30;72.10;;;;;;5038206;28;20053;-63
2023/05/14 00:35:37;;;;;;;4.53;3.80;;;14.30;72.10;;;;;;5040212;28;20092;-63
2023/05/14 00:38:03;;;;;;;4.90;3.83;;;14.30;72.20;;;;;;5038617;28;20037;-62
2023/05/14 00:40:38;;;;;;;4.57;3.88;;;14.30;72.20;;;;;;5037930;28;20056;-64
2023/05/14 00:43:03;;;;;;;5.32;3.83;;;14.50;72.50;;;;;;5036392;28;20033;-62
2023/05/14 00:45:29;;;;;;;6.35;3.80;;;14.40;72.30;;;;;;5037985;28;20388;-64
2023/05/14 00:47:55;;;;;;;5.20;4.65;;;14.30;72.20;;;;;;5037095;28;20025;-64
2023/05/14 00:50:21;;;;;;;5.10;3.83;;;14.30;72.30;;;;;;5041042;28;20121;-63
2023/05/14 00:52:48;;;;;;;5.50;4.13;;;14.30;72.40;;;;;;5039435;28;20024;-63
2023/05/14 00:55:15;;;;;;;4.60;3.83;;;14.30;72.20;;;;;;5041679;28;20030;-64
2023/05/14 00:57:41;;;;;;;7.85;4.50;;;14.30;72.20;;;;;;5041608;28;20163;-63
2023/05/14 01:00:08;;;;;;;7.32;4.65;;;14.30;72.30;;;;;;5041519;28;20479;-62
2023/05/14 01:02:33;;;;;;;5.90;4.60;;;14.30;72.30;;;;;;5041453;28;20021;-63
2023/05/14 01:05:00;;;;;;;6.13;4.45;;;14.30;72.30;;;;;;5039681;28;20056;-62
2023/05/14 01:07:53;;;;;;;5.97;4.40;;;14.30;72.50;;;;;;5040234;28;20036;-63
2023/05/14 01:10:44;;;;;;;8.48;4.32;;;14.30;73.00;;;;;;5037680;28;20100;-62
2023/05/14 01:13:31;;;;;;;8.43;4.90;;;14.30;72.70;;;;;;5035551;28;20088;-63
2023/05/14 01:15:59;;;;;;;5.68;4.43;;;14.30;72.30;;;;;;5040184;28;20033;-63
2023/05/14 01:18:28;;;;;;;4.82;4.32;;;14.30;72.20;;;;;;5023828;28;20041;-62
2023/05/14 01:20:54;;;;;;;6.68;5.10;;;14.30;72.40;;;;;;5036927;28;20072;-63
2023/05/14 01:23:20;;;;;;;5.45;4.60;;;14.30;72.50;;;;;;5039865;28;20032;-63
2023/05/14 01:25:45;;;;;;;5.70;4.82;;;14.30;72.60;;;;;;5033299;28;20025;-62
2023/05/14 01:28:18;;;;;;;5.50;4.70;;;14.30;72.60;;;;;;5041937;28;20108;-64
2023/05/14 01:31:04;;;;;;;5.20;4.45;;;14.30;72.60;;;;;;5038426;28;20599;-62
2023/05/14 01:33:33;;;;;;;9.57;5.03;;;14.30;72.70;;;;;;5040550;28;20084;-62
2023/05/14 01:35:59;;;;;;;6.15;4.88;;;14.30;72.30;;;;;;5038150;28;20044;-62
2023/05/14 01:38:29;;;;;;;7.78;5.15;;;14.30;72.20;;;;;;5040226;28;20030;-63
2023/05/14 01:40:56;;;;;;;5.28;4.40;;;14.30;72.30;;;;;;5036952;28;20026;-62
2023/05/14 01:43:22;;;;;;;8.02;5.40;;;14.30;72.30;;;;;;5032977;28;20484;-64
2023/05/14 01:45:48;;;;;;;7.40;5.03;;;14.30;72.30;;;;;;5039216;28;20026;-62
2023/05/14 01:48:14;;;;;;;6.53;5.05;;;14.30;72.30;;;;;;5040552;28;20026;-64
2023/05/14 01:50:40;;;;;;;8.02;4.88;;;14.30;72.30;;;;;;5038246;28;20041;-62
2023/05/14 01:53:05;;;;;;;7.75;5.20;;;14.30;72.30;;;;;;5040096;28;20025;-64
2023/05/14 01:55:31;;;;;;;7.13;5.32;;;14.30;72.20;;;;;;5038830;28;20116;-63
2023/05/14 01:57:57;;;;;;;6.95;5.25;;;14.30;72.10;;;;;;5043345;28;20025;-63
2023/05/14 02:00:26;;;;;;;7.25;4.97;;;14.30;72.00;;;;;;5034339;28;20032;-62
2023/05/14 02:02:52;;;;;;;8.35;5.43;;;14.30;72.00;;;;;;5021400;28;20029;-63
2023/05/14 02:05:18;;;;;;;6.63;5.40;;;14.30;72.00;;;;;;5034887;28;20040;-63
2023/05/14 02:07:44;;;;;;;5.68;4.95;;;14.30;72.10;;;;;;5040906;28;20056;-63
2023/05/14 02:10:10;;;;;;;5.85;5.00;;;14.30;72.10;;;;;;5021110;28;20127;-63
2023/05/14 02:12:35;;;;;;;6.97;5.20;;;14.30;72.10;;;;;;5040916;28;20033;-63
2023/05/14 02:15:02;;;;;;;6.60;4.38;;;14.30;72.20;;;;;;5038213;28;20025;-63
2023/05/14 02:17:28;;;;;;;7.30;5.07;;;14.20;72.20;;;;;;5039752;28;20121;-62
2023/05/14 02:19:54;;;;;;;6.82;4.97;;;14.20;72.20;;;;;;5039053;28;20025;-64
2023/05/14 02:22:20;;;;;;;6.00;5.07;;;14.20;72.40;;;;;;5036043;28;20029;-63
2023/05/14 02:24:45;;;;;;;7.10;5.70;;;14.20;72.40;;;;;;5039637;28;20476;-63
2023/05/14 02:27:12;;;;;;;6.78;5.90;;;14.20;72.30;;;;;;5038022;28;20030;-63
2023/05/14 02:29:38;;;;;;;7.63;5.90;;;14.20;72.10;;;;;;5040145;28;20022;-62
2023/05/14 02:32:04;;;;;;;11.38;6.28;;;14.20;72.00;;;;;;5034013;28;20025;-63
2023/05/14 02:34:30;;;;;;;8.38;6.35;;;14.20;72.00;;;;;;5039502;28;20030;-63
2023/05/14 02:36:55;;;;;;;6.68;5.70;;;14.20;72.00;;;;;;5036231;28;20063;-63
2023/05/14 02:39:21;;;;;;;8.25;6.13;;;14.20;72.00;;;;;;5036169;28;20036;-63
2023/05/14 02:41:46;;;;;;;7.63;6.10;;;14.20;71.80;;;;;;5033361;28;20026;-64
2023/05/14 02:44:12;;;;;;;7.07;5.85;;;14.20;71.70;;;;;;5039220;28;20026;-62
2023/05/14 02:46:38;;;;;;;9.40;6.47;;;14.10;71.70;;;;;;5032247;28;20064;-63
2023/05/14 02:49:03;;;;;;;7.47;5.93;;;14.10;71.60;;;;;;5039965;28;20033;-63
2023/05/14 02:51:29;;;;;;;7.45;5.70;;;14.10;71.50;;;;;;5037672;28;20658;-64
2023/05/14 02:53:55;;;;;;;8.45;6.63;;;14.10;71.60;;;;;;5038669;28;20026;-63
2023/05/14 02:56:21;;;;;;;8.20;6.38;;;14.00;71.70;;;;;;5038738;28;20103;-63
2023/05/14 02:58:47;;;;;;;6.50;5.78;;;14.00;71.70;;;;;;5039753;28;20536;-64
2023/05/14 03:01:12;;;;;;;7.15;5.97;;;14.00;71.80;;;;;;5038260;28;20079;-64
2023/05/14 03:03:38;;;;;;;6.82;5.93;;;14.00;72.50;;;;;;5038061;28;20030;-63
2023/05/14 03:06:04;;;;;;;8.02;5.90;;;14.00;71.90;;;;;;5036490;28;20056;-62
2023/05/14 03:08:30;;;;;;;7.53;5.75;;;14.00;71.70;;;;;;5038223;28;20037;-62
2023/05/14 03:10:56;;;;;;;8.98;6.32;;;14.00;71.70;;;;;;5033135;28;20029;-63
2023/05/14 03:13:21;;;;;;;7.38;6.32;;;14.00;72.40;;;;;;5036176;28;20057;-63
2023/05/14 03:15:47;;;;;;;7.38;5.75;;;14.30;71.90;;;;;;5036434;28;20037;-63
2023/05/14 03:18:13;;;;;;;8.15;5.70;;;14.00;71.80;;;;;;5039570;28;20140;-63
2023/05/14 03:20:40;;;;;;;8.80;6.80;;;13.90;71.70;;;;;;5033424;28;20025;-63
2023/05/14 03:23:05;;;;;;;8.27;6.15;;;13.90;71.70;;;;;;5040060;28;20024;-63
2023/05/14 03:25:31;;;;;;;8.48;6.80;;;13.90;71.80;;;;;;5034414;28;20033;-63
2023/05/14 03:27:57;;;;;;;8.73;6.30;;;13.90;71.90;;;;;;5031478;28;20026;-64
2023/05/14 03:30:23;;;;;;;9.15;6.60;;;13.90;71.90;;;;;;5038731;28;20084;-62
2023/05/14 03:32:49;;;;;;;8.30;5.93;;;13.90;72.10;;;;;;5038291;28;20021;-62
2023/05/14 03:35:15;;;;;;;7.18;6.03;;;13.90;72.00;;;;;;5037253;28;20036;-63
2023/05/14 03:37:40;;;;;;;9.25;6.53;;;13.90;72.00;;;;;;5035626;28;20041;-62
2023/05/14 03:40:07;;;;;;;8.98;6.07;;;13.90;72.00;;;;;;5038680;28;20025;-61
2023/05/14 03:42:32;;;;;;;11.10;6.78;;;13.90;72.00;;;;;;5036666;28;20091;-63
2023/05/14 03:44:58;;;;;;;9.18;6.45;;;13.90;72.00;;;;;;5039869;28;20037;-63
2023/05/14 03:47:24;;;;;;;10.85;6.40;;;13.90;72.00;;;;;;5037060;28;20036;-62
2023/05/14 03:49:49;;;;;;;13.98;6.97;;;13.90;71.90;;;;;;5038542;28;20049;-63
2023/05/14 03:52:15;;;;;;;7.93;6.78;;;13.90;72.00;;;;;;5013376;28;20029;-63
2023/05/14 03:54:41;;;;;;;7.05;6.32;;;13.80;72.10;;;;;;5045682;28;20030;-63
2023/05/14 03:57:06;;;;;;;7.00;6.13;;;13.80;72.10;;;;;;5042079;28;20048;-63
2023/05/14 03:59:32;;;;;;;12.85;6.60;;;13.80;72.10;;;;;;5043382;28;20038;-64
2023/05/14 04:01:57;;;;;;;9.05;6.60;;;13.90;72.20;;;;;;5040895;28;20032;-62
2023/05/14 04:04:23;;;;;;;10.30;6.30;;;13.80;72.30;;;;;;5044421;28;20044;-63
2023/05/14 04:06:49;;;;;;;9.85;6.95;;;13.80;72.30;;;;;;5038220;28;20444;-63
2023/05/14 04:09:14;;;;;;;7.65;6.07;;;13.80;72.40;;;;;;5042649;28;20052;-64
2023/05/14 04:11:40;;;;;;;7.75;6.03;;;13.80;72.40;;;;;;5041016;28;20056;-63
2023/05/14 04:14:06;;;;;;;8.32;6.32;;;13.80;72.30;;;;;;5038138;28;20068;-62
2023/05/14 04:16:32;;;;;;;10.20;7.07;;;13.90;72.40;;;;;;5040476;28;20072;-62
2023/05/14 04:18:59;;;;;;;10.05;6.03;;;13.90;72.40;;;;;;5043281;28;20029;-62
2023/05/14 04:21:24;;;;;;;8.50;7.05;;;13.80;72.30;;;;;;5040562;28;20033;-62
2023/05/14 04:23:50;;;;;;;8.52;6.82;;;13.90;72.40;;;;;;5040743;28;20052;-62
2023/05/14 04:26:16;;;;;;;8.15;6.18;;;13.80;72.30;;;;;;5040390;28;20090;-63
2023/05/14 04:28:41;;;;;;;8.85;6.85;;;13.80;72.30;;;;;;5038581;28;20036;-63
2023/05/14 04:31:07;;;;;;;8.25;6.80;;;13.80;72.30;;;;;;5041045;28;20044;-63
2023/05/14 04:33:33;;;;;;;8.85;7.13;;;13.90;72.20;;;;;;5036785;28;20025;-62
2023/05/14 04:35:58;;;;;;;8.90;6.72;;;13.80;72.20;;;;;;5042717;28;20056;-63
2023/05/14 04:38:24;;;;;;;9.68;6.80;;;13.80;72.30;;;;;;5022832;28;20061;-61
2023/05/14 04:40:50;;;;;;;9.38;6.70;;;13.80;72.30;;;;;;5040077;28;20018;-62
2023/05/14 04:43:16;;;;;;;12.57;6.97;;;13.80;72.40;;;;;;5038671;28;20025;-62
2023/05/14 04:45:42;;;;;;;19.00;7.20;;;13.80;72.40;;;;;;5042674;28;20085;-62
2023/05/14 04:48:07;;;;;;;9.07;6.78;;;13.80;72.40;;;;;;5041540;28;20036;-62
2023/05/14 04:50:33;;;;;;;8.27;6.53;;;13.80;72.40;;;;;;5044132;28;20072;-63
2023/05/14 04:52:59;;;;;;;7.70;6.18;;;13.80;72.40;;;;;;5042525;28;20111;-63
2023/05/14 04:55:25;;;;;;;8.25;6.10;;;13.80;72.50;;;;;;5042100;28;20037;-63
2023/05/14 04:57:50;;;;;;;9.98;6.45;;;13.80;72.50;;;;;;5037941;28;20033;-63
2023/05/14 05:00:16;;;;;;;8.80;7.05;;;13.90;72.60;;;;;;5032778;28;20060;-63
2023/05/14 05:02:42;;;;;;;7.68;6.10;;;13.90;72.60;;;;;;5041471;28;20037;-62
2023/05/14 05:05:08;;;;;;;9.85;7.50;;;13.90;72.60;;;;;;5039536;28;20028;-63
2023/05/14 05:07:34;;;;;;;8.48;6.53;;;13.90;72.60;;;;;;5039645;28;20033;-62
2023/05/14 05:10:00;;;;;;;9.60;6.60;;;14.00;72.60;;;;;;5040160;28;20026;-63
2023/05/14 05:12:28;;;;;;;8.32;6.60;;;14.00;72.50;;;;;;5039558;28;20084;-62
2023/05/14 05:14:56;;;;;;;8.02;6.75;;;14.00;72.50;;;;;;5041370;28;20030;-63
2023/05/14 05:17:21;;;;;;;8.52;6.72;;;14.00;72.30;;;;;;5041407;28;20052;-62
2023/05/14 05:19:47;;;;;;;7.55;6.40;;;14.00;72.30;;;;;;5022366;28;20512;-62
2023/05/14 05:22:14;;;;;;;10.77;7.38;;;14.00;72.30;;;;;;5023055;28;20036;-63
2023/05/14 05:24:40;;;;;;;8.65;6.78;;;14.00;72.40;;;;;;5037564;28;20105;-65
2023/05/14 05:27:06;;;;;;;9.15;6.95;;;14.10;72.30;;;;;;5023058;28;20029;-62
2023/05/14 05:29:31;;;;;;;9.93;6.72;;;14.10;72.30;;;;;;5036448;28;20057;-62
2023/05/14 05:31:57;;;;;;;9.00;7.28;;;14.10;72.30;;;;;;5036657;28;20021;-62
2023/05/14 05:34:23;;;;;;;8.70;6.93;;;14.10;72.30;;;;;;5039753;28;20060;-63
2023/05/14 05:36:49;;;;;;;9.63;7.05;;;14.10;72.10;;;;;;5043026;28;20100;-63
2023/05/14 05:39:15;;;;;;;8.13;6.57;;;14.10;72.00;;;;;;5024858;28;20061;-63
2023/05/14 05:41:42;;;;;;;8.98;6.97;;;14.20;72.00;;;;;;5040060;28;20048;-63
2023/05/14 05:44:08;;;;;;;9.88;7.05;;;14.20;72.00;;;;;;5042355;28;20085;-63
2023/05/14 05:46:33;;;;;;;12.25;6.93;;;14.20;72.00;;;;;;5045532;28;20025;-64
2023/05/14 05:48:59;;;;;;;9.65;7.03;;;14.20;71.90;;;;;;5039839;28;20051;-64
2023/05/14 05:51:25;;;;;;;9.73;7.88;;;14.20;71.90;;;;;;5046630;28;20044;-63
2023/05/14 05:53:51;;;;;;;9.98;7.03;;;14.20;71.90;;;;;;5038376;28;20594;-63
2023/05/14 05:56:16;;;;;;;9.48;7.50;;;14.20;72.00;;;;;;5042577;28;20112;-63
2023/05/14 05:58:42;;;;;;;9.15;6.80;;;14.20;72.00;;;;;;5034378;28;20060;-63
2023/05/14 06:01:08;;;;;;;10.05;7.95;;;14.20;72.00;;;;;;5040948;28;20089;-62
2023/05/14 06:03:34;;;;;;;9.35;7.82;;;14.20;72.00;;;;;;5038150;28;20026;-65
2023/05/14 06:05:59;;;;;;;8.48;6.88;;;14.30;72.00;;;;;;5039657;28;20049;-65
2023/05/14 06:08:25;;;;;;;12.05;7.28;;;14.30;72.10;;;;;;5041724;28;20036;-67
2023/05/14 06:10:51;;;;;;;7.57;6.68;;;14.40;72.00;;;;;;5038348;28;20104;-66
2023/05/14 06:13:17;;;;;;;10.15;6.93;;;14.40;72.00;;;;;;5038784;28;20060;-66
2023/05/14 06:15:42;;;;;;;7.25;6.28;;;14.50;72.00;;;;;;5034691;28;20033;-65
2023/05/14 06:18:08;;;;;;;8.80;6.93;;;14.60;72.00;;;;;;5041220;28;20041;-65
2023/05/14 06:20:34;;;;;;;8.27;7.13;;;14.60;71.80;;;;;;5037972;28;20049;-65
2023/05/14 06:23:00;;;;;;;10.00;7.15;;;14.70;71.80;;;;;;5039797;28;20383;-65
2023/05/14 06:25:25;;;;;;;8.05;6.28;;;14.80;71.80;;;;;;5036976;28;20021;-65
2023/05/14 06:27:51;;;;;;;8.82;5.95;;;14.90;71.80;;;;;;5039761;28;20052;-65
2023/05/14 06:30:17;;;;;;;8.50;6.07;;;15.00;71.40;;;;;;5036190;28;20423;-65
2023/05/14 06:32:42;;;;;;;6.72;5.57;;;15.10;71.00;;;;;;5037316;28;20022;-67
2023/05/14 06:35:08;;;;;;;6.20;5.15;;;15.20;70.80;;;;;;5034242;28;20112;-65
2023/05/14 06:37:34;;;;;;;6.80;5.15;;;15.30;70.50;;;;;;5021123;28;20034;-66
2023/05/14 06:40:00;;;;;;;5.25;4.47;;;15.40;70.40;;;;;;5037372;28;20208;-65
2023/05/14 06:42:26;;;;;;;6.95;5.03;;;15.40;70.00;;;;;;5036326;28;20029;-64
2023/05/14 06:44:52;;;;;;;7.57;4.95;;;15.50;69.40;;;;;;5039772;28;20021;-65
2023/05/14 06:47:17;;;;;;;7.10;5.35;;;15.60;68.70;;;;;;5039147;28;20036;-66
2023/05/14 06:49:43;;;;;;;6.40;4.97;;;15.60;68.40;;;;;;5039629;28;20112;-64
2023/05/14 06:52:09;;;;;;;5.72;4.95;;;15.60;68.40;;;;;;5038740;28;20069;-66
2023/05/14 06:54:34;;;;;;;5.55;4.50;;;15.60;68.30;;;;;;5038208;28;20037;-64
2023/05/14 06:57:00;;;;;;;5.38;4.68;;;15.70;68.40;;;;;;5037452;28;20041;-65
2023/05/14 06:59:26;;;;;;;6.70;4.90;;;15.60;68.40;;;;;;5038263;28;20026;-65
2023/05/14 07:01:51;;;;;;;6.30;4.95;;;15.70;68.30;;;;;;5033111;28;20029;-66
2023/05/14 07:04:17;;;;;;;5.15;4.45;;;15.80;68.30;;;;;;5038179;28;20037;-66
2023/05/14 07:06:43;;;;;;;6.60;5.05;;;15.80;68.10;;;;;;5036513;28;20025;-65
2023/05/14 07:09:09;;;;;;;8.93;5.43;;;15.80;67.90;;;;;;5034114;28;20044;-65
2023/05/14 07:11:35;;;;;;;7.00;4.95;;;15.80;67.70;;;;;;5038948;28;20090;-65
2023/05/14 07:14:00;;;;;;;5.65;4.85;;;15.80;67.70;;;;;;5039837;28;20508;-66
2023/05/14 07:16:26;;;;;;;5.47;4.32;;;15.80;67.80;;;;;;5034379;28;20433;-65
2023/05/14 07:18:52;;;;;;;6.18;4.75;;;15.80;67.70;;;;;;5041057;28;20025;-67
2023/05/14 07:21:17;;;;;;;4.97;4.15;;;15.90;67.40;;;;;;5039361;28;20037;-65
2023/05/14 07:23:43;;;;;;;6.97;4.32;;;15.90;67.20;;;;;;5040310;28;20063;-65
2023/05/14 07:26:09;;;;;;;6.53;4.40;;;15.90;68.00;;;;;;5035893;28;20056;-66
2023/05/14 07:28:35;;;;;;;4.93;4.43;;;15.90;67.40;;;;;;5019887;28;20025;-65
2023/05/14 07:31:00;;;;;;;4.90;4.28;;;16.00;67.10;;;;;;5034809;28;20432;-66
2023/05/14 07:33:26;;;;;;;5.93;4.50;;;16.00;66.80;;;;;;5039297;28;20052;-65
2023/05/14 07:35:53;;;;;;;5.22;4.10;;;15.90;67.00;;;;;;5033172;28;20041;-66
2023/05/14 07:38:19;;;;;;;4.72;4.10;;;16.00;67.40;;;;;;5039578;28;20025;-65
2023/05/14 07:40:44;;;;;;;6.22;4.63;;;16.00;67.10;;;;;;5035072;28;20021;-64
2023/05/14 07:43:10;;;;;;;5.70;4.50;;;16.00;67.00;;;;;;5037596;28;20041;-65
2023/05/14 07:45:38;;;;;;;4.90;4.30;;;16.10;67.00;;;;;;5029896;28;20029;-64
2023/05/14 07:48:03;;;;;;;8.02;4.75;;;16.10;67.00;;;;;;5036429;28;20026;-65
2023/05/14 07:50:30;;;;;;;6.15;5.22;;;16.10;67.10;;;;;;5032430;28;20458;-65
2023/05/14 07:52:55;;;;;;;6.15;5.10;;;16.10;67.20;;;;;;5034271;28;20021;-64
2023/05/14 07:55:21;;;;;;;5.00;4.18;;;16.10;66.90;;;;;;5032538;28;20053;-64
2023/05/14 07:57:47;;;;;;;6.32;4.30;;;16.20;66.90;;;;;;5037015;28;20061;-65
2023/05/14 08:00:13;;;;;;;4.63;4.22;;;16.20;66.70;;;;;;5038753;28;20029;-65
2023/05/14 08:02:38;;;;;;;6.97;4.55;;;16.20;66.80;;;;;;5034289;28;20021;-64
2023/05/14 08:05:04;;;;;;;5.13;4.18;;;16.20;66.50;;;;;;5041984;28;20053;-65
2023/05/14 08:07:30;;;;;;;5.32;4.20;;;16.20;66.20;;;;;;5011644;28;20044;-64
2023/05/14 08:09:56;;;;;;;5.50;4.18;;;16.00;66.10;;;;;;5036658;28;20125;-67
2023/05/14 08:12:22;;;;;;;5.85;4.55;;;16.10;66.20;;;;;;5032943;28;20018;-67
2023/05/14 08:14:47;;;;;;;7.47;4.28;;;16.10;66.50;;;;;;5036269;28;20026;-64
2023/05/14 08:17:13;;;;;;;6.18;4.53;;;16.10;65.80;;;;;;5034357;28;20069;-64
2023/05/14 08:19:39;;;;;;;5.95;4.97;;;16.10;65.80;;;;;;5034871;28;20100;-65
2023/05/14 08:22:04;;;;;;;5.15;4.25;;;16.10;65.60;;;;;;5036109;28;20089;-65
2023/05/14 08:24:30;;;;;;;7.32;4.38;;;16.00;65.70;;;;;;5039838;28;20029;-65
2023/05/14 08:26:56;;;;;;;4.93;4.22;;;16.00;65.20;;;;;;5034588;28;20081;-65
2023/05/14 08:29:22;;;;;;;6.75;4.40;;;16.00;65.70;;;;;;5040382;28;20398;-65
2023/05/14 08:31:48;;;;;;;4.65;4.10;;;16.00;65.00;;;;;;5035550;28;20101;-64
2023/05/14 08:34:14;;;;;;;6.63;4.38;;;16.00;64.90;;;;;;5039302;28;20037;-64
2023/05/14 08:36:40;;;;;;;7.75;4.50;;;16.00;65.50;;;;;;5036122;28;20088;-65
2023/05/14 08:39:08;;;;;;;4.32;3.92;;;16.00;65.70;;;;;;5037316;28;20036;-65
2023/05/14 08:41:34;;;;;;;14.43;4.25;;;16.10;66.00;;;;;;4931303;28;20034;-65
2023/05/14 08:44:13;;;;;;;4.30;3.90;;;16.10;66.30;;;;;;5040541;28;20021;-64
2023/05/14 08:46:39;;;;;;;4.75;4.15;;;16.20;65.90;;;;;;5034259;28;20093;-65
2023/05/14 08:49:44;;;;;;;4.82;4.07;;;16.30;65.90;;;;;;5036380;28;20026;-65
2023/05/14 08:52:10;;;;;;;4.88;4.20;;;16.30;65.50;;;;;;5038114;28;20028;-65
2023/05/14 08:54:36;;;;;;;14.00;4.18;;;16.40;65.70;;;;;;5040088;28;20033;-65
2023/05/14 08:57:07;;;;;;;4.40;4.00;;;16.40;65.30;;;;;;5038634;28;20104;-65
2023/05/14 08:59:33;;;;;;;4.82;4.10;;;16.40;65.00;;;;;;5021972;28;20025;-65
2023/05/14 09:02:01;;;;;;;4.63;4.00;;;16.40;64.80;;;;;;5039600;28;20032;-64
2023/05/14 09:04:28;;;;;;;5.35;4.20;;;16.50;65.00;;;;;;5036592;28;20087;-65
2023/05/14 09:06:54;;;;;;;4.50;4.10;;;16.40;65.20;;;;;;5041017;28;20022;-66
2023/05/14 09:09:21;;;;;;;4.68;4.18;;;16.40;64.50;;;;;;5040451;28;20025;-65
2023/05/14 09:11:51;;;;;;;4.35;3.90;;;16.40;64.40;;;;;;5039760;28;20104;-65
2023/05/14 09:14:18;;;;;;;5.80;4.10;;;16.50;64.60;;;;;;5034415;28;20048;-65
2023/05/14 09:16:46;;;;;;;4.10;3.53;;;16.50;65.00;;;;;;5038716;28;20041;-64
2023/05/14 09:19:13;;;;;;;6.75;4.32;;;16.40;65.20;;;;;;5039733;28;20025;-66
2023/05/14 09:21:39;;;;;;;6.85;4.85;;;16.50;65.20;;;;;;5041035;28;20032;-65
2023/05/14 09:24:05;;;;;;;6.07;4.47;;;16.50;65.30;;;;;;5038624;28;20060;-64
2023/05/14 09:26:34;;;;;;;7.13;4.28;;;16.50;65.40;;;;;;5039320;28;20037;-65
2023/05/14 09:29:01;;;;;;;4.95;4.45;;;16.60;65.70;;;;;;5039811;28;20025;-65
2023/05/14 09:31:31;;;;;;;4.65;4.18;;;16.70;66.00;;;;;;5039689;28;20032;-65
2023/05/14 09:33:58;;;;;;;4.30;3.85;;;16.80;66.10;;;;;;5039528;28;20103;-65
2023/05/14 09:36:25;;;;;;;4.88;4.22;;;17.00;66.40;;;;;;5041118;28;20046;-64
2023/05/14 09:38:59;;;;;;;5.97;3.88;;;17.20;66.20;;;;;;5038365;28;20025;-63
2023/05/14 09:41:24;;;;;;;4.97;3.78;;;17.30;66.10;;;;;;5040905;28;20036;-66
2023/05/14 09:43:50;;;;;;;3.90;3.47;;;17.60;66.50;;;;;;5039179;28;20025;-65
2023/05/14 09:46:16;;;;;;;4.30;3.15;;;17.80;65.10;;;;;;5043000;28;20076;-66
2023/05/14 09:48:42;;;;;;;6.05;3.72;;;18.10;65.20;;;;;;5039028;28;20033;-66
2023/05/14 09:51:10;;;;;;;4.00;3.33;;;18.30;63.90;;;;;;5038850;28;20033;-65
2023/05/14 09:53:36;;;;;;;3.42;2.97;;;18.50;63.70;;;;;;5037599;28;20021;-66
2023/05/14 09:56:01;;;;;;;4.25;3.25;;;18.70;63.40;;;;;;5019075;28;20066;-64
2023/05/14 09:58:28;;;;;;;4.30;3.25;;;18.90;62.90;;;;;;5015621;28;20045;-64
2023/05/14 10:00:56;;;;;;;3.30;3.00;;;19.00;61.20;;;;;;5036057;28;20072;-65
2023/05/14 10:03:24;;;;;;;5.45;3.13;;;19.10;61.70;;;;;;5040534;28;20040;-65
2023/05/14 10:05:51;;;;;;;3.60;3.08;;;19.30;60.30;;;;;;5042669;28;20021;-65
2023/05/14 10:08:32;;;;;;;4.25;3.08;;;19.40;61.30;;;;;;5019627;28;20033;-65
2023/05/14 10:11:00;;;;;;;3.40;2.85;;;19.50;59.20;;;;;;5038364;28;20072;-66
2023/05/14 10:13:30;;;;;;;4.10;2.90;;;19.60;60.40;;;;;;5036595;28;20049;-65
2023/05/14 10:16:06;;;;;;;2.85;2.45;;;19.70;58.80;;;;;;5040715;28;20033;-64
2023/05/14 10:18:39;;;;;;;3.75;2.70;;;19.80;58.70;;;;;;5038831;28;20032;-65
2023/05/14 10:21:06;;;;;;;3.33;2.60;;;19.80;58.70;;;;;;5039129;28;20021;-66
2023/05/14 10:23:33;;;;;;;4.13;2.53;;;19.90;59.10;;;;;;5036954;28;20053;-66
2023/05/14 10:25:59;;;;;;;3.45;2.30;;;19.90;59.40;;;;;;5039671;28;20025;-65
2023/05/14 10:28:26;;;;;;;3.05;2.47;;;19.90;59.10;;;;;;5038235;28;20025;-65
2023/05/14 10:30:53;;;;;;;2.40;2.10;;;20.00;59.20;;;;;;5038539;28;20025;-64
2023/05/14 10:33:19;;;;;;;3.15;2.42;;;20.10;58.30;;;;;;5042674;28;20025;-65
2023/05/14 10:36:00;;;;;;;4.65;2.53;;;20.20;58.70;;;;;;5037289;28;20022;-65
2023/05/14 10:38:33;;;;;;;2.88;2.20;;;20.20;57.40;;;;;;5037315;28;20075;-65
2023/05/14 10:41:03;;;;;;;2.42;2.08;;;20.20;56.90;;;;;;5034698;28;20338;-65
2023/05/14 10:43:30;;;;;;;2.40;2.17;;;20.30;56.80;;;;;;5017078;28;20125;-66
2023/05/14 10:45:57;;;;;;;2.60;2.25;;;20.30;57.30;;;;;;5035920;28;20024;-66
2023/05/14 10:48:24;;;;;;;3.17;2.17;;;20.40;57.30;;;;;;5038027;28;20100;-66
2023/05/14 10:50:51;;;;;;;3.45;2.42;;;20.50;57.30;;;;;;5039150;28;20017;-65
2023/05/14 10:53:17;;;;;;;3.03;2.60;;;20.60;57.50;;;;;;5037178;28;20032;-65
2023/05/14 10:55:44;;;;;;;3.60;2.78;;;20.60;56.40;;;;;;5017369;28;20048;-66
2023/05/14 10:58:10;;;;;;;3.05;2.42;;;20.60;56.40;;;;;;5036975;28;20025;-66
2023/05/14 11:00:37;;;;;;;4.22;2.65;;;20.60;55.90;;;;;;5038613;28;20029;-65
2023/05/14 11:03:05;;;;;;;2.50;2.30;;;20.60;55.60;;;;;;5038361;28;20121;-65
2023/05/14 11:05:31;;;;;;;2.67;2.10;;;20.60;55.40;;;;;;5038804;28;20047;-65
2023/05/14 11:07:58;;;;;;;4.43;2.60;;;20.50;55.40;;;;;;5039252;28;20025;-64
2023/05/14 11:10:28;;;;;;;3.03;2.03;;;20.50;55.40;;;;;;5035643;28;20021;-65
2023/05/14 11:12:56;;;;;;;2.72;2.33;;;20.50;55.50;;;;;;5038408;28;20164;-66
2023/05/14 11:15:24;;;;;;;2.50;2.17;;;20.60;54.30;;;;;;5035612;28;20057;-65
2023/05/14 11:17:51;;;;;;;1.90;1.80;;;20.60;54.50;;;;;;5036236;28;20038;-65
2023/05/14 11:20:18;;;;;;;2.08;1.90;;;20.60;55.10;;;;;;5038993;28;20077;-65
2023/05/14 11:22:45;;;;;;;2.17;1.90;;;20.70;54.80;;;;;;5035174;28;20143;-64
2023/05/14 11:25:15;;;;;;;2.03;1.60;;;20.70;54.30;;;;;;5037486;28;20040;-66
2023/05/14 11:27:43;;;;;;;2.33;1.60;;;20.80;54.60;;;;;;5035922;28;20033;-65
2023/05/14 11:30:16;;;;;;;2.20;1.80;;;20.80;55.20;;;;;;5037392;28;20077;-67
2023/05/14 11:32:47;;;;;;;1.75;1.65;;;20.90;54.40;;;;;;5035889;28;20480;-65
2023/05/14 11:35:14;;;;;;;1.80;1.50;;;21.00;54.90;;;;;;5031211;28;20030;-65
2023/05/14 11:37:40;;;;;;;2.00;1.70;;;21.10;55.30;;;;;;5035447;28;20113;-64
2023/05/14 11:40:09;;;;;;;2.30;2.05;;;21.20;54.20;;;;;;5032771;28;20049;-65
2023/05/14 11:42:36;;;;;;;1.70;1.52;;;21.30;54.00;;;;;;5040773;28;20077;-66
2023/05/14 11:45:02;;;;;;;2.35;1.80;;;21.40;53.70;;;;;;5017896;28;20048;-65
2023/05/14 11:47:28;;;;;;;2.17;1.63;;;21.40;53.70;;;;;;5035783;28;20113;-65
2023/05/14 11:49:54;;;;;;;1.95;1.80;;;21.40;52.90;;;;;;5036089;28;20443;-65
2023/05/14 11:52:20;;;;;;;6.45;1.70;;;21.40;52.60;;;;;;5038068;28;20045;-63
2023/05/14 11:54:48;;;;;;;1.98;1.58;;;21.40;52.40;;;;;;5039373;28;20473;-65
2023/05/14 11:57:17;;;;;;;1.55;1.45;;;21.30;51.80;;;;;;5037422;28;20045;-65
2023/05/14 11:59:43;;;;;;;2.25;1.50;;;21.30;52.80;;;;;;5036498;28;20029;-65
2023/05/14 12:02:14;;;;;;;1.50;1.40;;;21.30;53.20;;;;;;5035638;28;20022;-64
2023/05/14 12:04:40;;;;;;;1.58;1.40;;;21.30;52.70;;;;;;5038905;28;20018;-66
2023/05/14 12:07:08;;;;;;;3.72;1.27;;;21.30;52.40;;;;;;5033486;28;20544;-64
2023/05/14 12:09:40;;;;;;;1.20;1.10;;;21.30;52.10;;;;;;5035905;28;20061;-65
2023/05/14 12:12:11;;;;;;;1.70;1.60;;;21.30;51.50;;;;;;5036023;28;20427;-64
2023/05/14 12:14:41;;;;;;;1.73;1.35;;;21.30;52.10;;;;;;5036053;28;20094;-65
2023/05/14 12:17:18;;;;;;;1.60;1.40;;;21.30;52.40;;;;;;5038170;28;20037;-64
2023/05/14 12:19:47;;;;;;;1.77;1.60;;;21.20;52.00;;;;;;5034011;28;20048;-66
2023/05/14 12:22:15;;;;;;;1.60;1.50;;;21.20;52.40;;;;;;5040472;28;20021;-65
2023/05/14 12:24:42;;;;;;;2.13;1.30;;;21.20;53.10;;;;;;5040153;28;20022;-64
2023/05/14 12:27:09;;;;;;;1.60;1.50;;;21.10;53.00;;;;;;5040268;28;20029;-64
2023/05/14 12:29:38;;;;;;;1.85;1.63;;;21.10;52.70;;;;;;5040945;28;20041;-66
2023/05/14 12:32:08;;;;;;;2.28;1.80;;;21.20;52.50;;;;;;5041007;28;20116;-64
2023/05/14 12:34:35;;;;;;;1.40;1.27;;;21.10;51.70;;;;;;5042015;28;20076;-64
2023/05/14 12:37:01;;;;;;;1.67;1.42;;;21.10;52.70;;;;;;5038377;28;20042;-65
2023/05/14 12:39:27;;;;;;;1.77;1.63;;;21.10;52.50;;;;;;5039633;28;20035;-65
2023/05/14 12:41:52;;;;;;;3.67;1.50;;;21.00;52.70;;;;;;5038724;28;20040;-64
2023/05/14 12:44:18;;;;;;;1.65;1.45;;;21.00;52.70;;;;;;5039840;28;20079;-65